Impacts METAR Board
IDs:

KPHX - Phoenix/Sky Harbor, AZ, US

Updated at: 0100 UTC 18 Aug 2018
Potential Impact None Slight Moderate High
Time 17/13Z 17/14Z 17/15Z 17/16Z 17/17Z 17/18Z 17/19Z 17/20Z 17/21Z 17/22Z 17/23Z 18/00Z 18/01Z
Temp85 86 87 89 92 94 97 98 100 101 102 102 101
Dewpt70 70 70 70 69 69 68 67 65 64 63 61 65
Altim30.00 30.01 30.02 30.03 30.02 30.02 30.00 29.97 29.95 29.93 29.91 29.89 29.89
VIS10 10 10 10 10 10 10 10 10 10 10 10 10
CIG250 250 250 250 250 250 250 250 250 250 250 250 250
CoverBKNBKNBKNBKNBKNBKNBKNBKNBKNBKNBKNBKNBKN
FltCatVFRVFRVFRVFRVFRVFRVFRVFRVFRVFRVFRVFRVFR
WX--------------------------
WDir036002902902501902700270250270310
WSpd0 4 3 3 3 7 4 8 0 9 8 11 8
WGst-- -- -- -- -- -- -- -- -- -- -- -- --
Raw hourly METARs
KPHX 171251Z 00000KT 10SM FEW140 SCT200 BKN250 29/21 A3000 RMK AO2 SLP138 T02940211
KPHX 171351Z 36004KT 10SM FEW130 FEW200 BKN250 30/21 A3001 RMK AO2 SLP142 T03000211
KPHX 171451Z VRB03KT 10SM FEW130 BKN250 31/21 A3002 RMK AO2 SLP144 T03060211 51008
KPHX 171551Z 29003KT 10SM FEW080 FEW140 BKN250 32/21 A3003 RMK AO2 SLP147 T03170211
KPHX 171651Z 29003KT 10SM FEW050 FEW150 BKN250 33/21 A3002 RMK AO2 SLP145 T03330206
KPHX 171751Z 25007KT 10SM FEW050 FEW150 BKN250 34/21 A3002 RMK AO2 SLP143 T03440206 10350 20289 50000
KPHX 171851Z 19004KT 10SM FEW060 FEW150 BKN250 36/20 A3000 RMK AO2 SLP137 T03610200
KPHX 171951Z 27008KT 10SM FEW070 BKN250 37/19 A2997 RMK AO2 SLP128 TCU DSNT N T03670194
KPHX 172051Z 00000KT 10SM FEW070 BKN250 38/18 A2995 RMK AO2 SLP121 CB DSNT N T03780183 58022
KPHX 172151Z 27009KT 230V290 10SM SCT070 BKN250 38/18 A2993 RMK AO2 SLP113 CB DSNT NW T03830178
KPHX 172251Z 25008KT 10SM SCT070 BKN250 39/17 A2991 RMK AO2 SLP106 CB DSNT NW T03890172
KPHX 172351Z 27011KT 10SM SCT070 BKN250 39/16 A2989 RMK AO2 SLP099 CB DSNT NW T03890161 10394 20339 56021
KPHX 180051Z 31008KT 10SM SCT070 BKN250 38/18 A2989 RMK AO2 SLP099 T03830183



Page loaded:  01:27 UTC  |   06:27 PM Pacific  |   07:27 PM Mountain  |   08:27 PM Central  |   09:27 PM Eastern

 

ADVISORIES

FORECASTS

FORECASTS

OBSERVATIONS

USER TOOLS

ABOUT US